Weather observations for the past three days for
Sulphur Springs, Sulphur Springs Municipal Airport
Imperial (Metric)
Date Time (cdt) Wind (mph) Vis. (mi.) Weather Sky Cond. Temperature (ºF) Relative Humidity Wind Chill (°F) Heat Index (°F) Pressure Precipitation (in)
Air Dwpt 6 hour altimeter (in) sea level (mb) 1 hr 3 hr 6 hr
Max. Min.
07 04:55 N 7 10.00 Fair CLR 53.6 53.6 100% 30.08 0.0
07 04:35 N 5 10.00 Fair CLR 53.6 53.6 100% 30.08 0.0
07 04:15 N 5 10.00 Partly Cloudy SCT035 53.6 53.4 99% 30.07 0.0
07 03:55 N 5 10.00 Partly Cloudy SCT035 53.6 53.2 99% 30.07 0.0
07 03:35 N 6 10.00 Mostly Cloudy BKN035 53.8 53.8 100% 30.07 0.0
07 03:15 N 5 10.00 Partly Cloudy SCT035 53.8 53.8 100% 30.07 0.0
07 02:55 N 6 10.00 Fair CLR 53.6 53.6 100% 30.06 0.0
07 02:35 Calm 10.00 Fair CLR 53.1 53.1 100% 30.06 0.0
07 02:15 Calm 10.00 Fair CLR 52.9 52.7 99% 30.06 0.0
07 01:55 Calm 10.00 Partly Cloudy SCT033 53.4 53.1 99% 30.06 0.0
07 01:35 Calm 10.00 Mostly Cloudy BKN033 54.1 53.6 98% 30.06 0.0
07 01:15 Calm 10.00 Overcast OVC033 54.5 54 98% 30.07 0.0
07 00:55 NE 3 10.00 Overcast OVC035 54.9 54.3 57.7 54.9 98% 30.07 0.0 0.04
07 00:35 Calm 10.00 Overcast OVC035 54.9 54.5 99% 30.08 0.0
06 23:55 NE 5 10.00 Overcast SCT010 OVC035 55 54.5 98% 30.08 0.0
06 23:35 NE 3 10.00 Overcast SCT010 BKN030 OVC036 55 54.5 98% 30.08 0.0
06 23:15 NE 5 10.00 Overcast SCT019 OVC028 55.4 54.9 98% 30.09 0.0
06 22:55 NE 5 10.00 Overcast BKN017 OVC022 55.4 54.9 98% 30.08 0.0
06 22:35 NE 6 10.00 Overcast BKN021 BKN025 OVC030 55.2 54.7 98% 30.07 0.0
06 22:15 NE 7 10.00 Overcast SCT008 BKN016 OVC028 55.4 54.9 98% 30.07 0.0
06 21:55 NE 7 10.00 Overcast BKN008 OVC015 55.4 55 99% 30.06 0.0 0.04
06 21:35 NE 12 10.00 Overcast BKN010 OVC021 55.4 54.9 98% 30.05 0.0
06 21:15 N 10 7.00 Overcast BKN010 OVC017 55.9 55.4 98% 30.03 0.0
06 20:55 N 9 G 17 10.00 Overcast OVC013 55.9 55.6 99% 30.02 0.0 0.01
06 20:35 N 8 7.00 Overcast BKN008 OVC012 56.3 56.1 99% 30.01 0.0 0.01
06 20:15 N 9 5.00 Overcast OVC006 56.7 56.7 100% 30 0.0 0.01
06 19:55 N 9 G 16 7.00 Overcast OVC006 57 57 100% 29.99 0.0 0.03
06 19:35 NE 10 7.00 Overcast OVC006 57.2 57.2 100% 29.99 0.0 0.02
06 19:15 N 12 10.00 Overcast OVC006 57.6 57.6 100% 29.98 0.0 0.01
06 18:55 NE 8 10.00 Overcast OVC006 57.7 57.7 59.2 57.4 100% 29.98 0.0 0.04 0.08
06 18:35 NE 10 7.00 Thunderstorm in Vicinity OVC004 58.1 58.1 100% 29.96 0.0 0.03
06 18:15 NE 8 3.00 Overcast OVC004 58.1 58.1 100% 29.97 0.0 0.01
06 17:55 N 9 1.50 Overcast OVC004 58.3 58.3 100% 29.97 0.0 0.04
06 17:35 N 9 G 17 1.00 Overcast OVC004 58.6 58.6 100% 29.95 0.0 0.02
06 17:15 N 12 3.00 Overcast OVC006 58.8 58.5 99% 29.95 0.0
06 16:55 N 9 5.00 Thunderstorm in Vicinity OVC006 59 58.3 97% 29.95 0.0
06 16:35 N 7 5.00 Overcast OVC006 59 58.3 97% 29.96 0.0
06 16:15 N 3 G 12 10.00 Thunderstorm OVC006 59 58.1 97% 29.96 0.0
06 15:55 N 10 10.00 Overcast OVC006 58.6 57.9 97% 29.95 0.0
06 15:35 NW 10 10.00 Overcast OVC006 58.3 57.6 97% 29.97 0.0
06 15:15 NW 6 7.00 Thunderstorm OVC006 57.9 57 97% 29.97 0.0
06 14:55 N 14 7.00 Overcast OVC008 58.1 56.7 95% 29.95 0.0
06 14:35 N 10 10.00 Overcast OVC008 58.5 56.5 93% 29.96 0.0
06 14:15 N 9 10.00 Overcast OVC008 58.6 56.7 93% 29.94 0.0
06 13:55 NE 5 10.00 Overcast OVC008 58.1 55.8 92% 29.96 0.0
06 13:35 N 15 G 18 10.00 Overcast OVC008 58.3 56.1 93% 29.9 0.0
06 13:15 N 12 G 17 10.00 Overcast OVC008 58.3 55.8 91% 29.93 0.0
06 12:55 N 12 G 18 10.00 Overcast OVC008 57.6 54.9 57.6 54.5 91% 29.97 0.0
06 12:35 E 9 10.00 Overcast BKN008 BKN014 OVC060 57.2 54.3 90% 29.95 0.0
06 12:15 NE 6 10.00 Overcast BKN010 BKN014 OVC029 56.8 54.5 92% 29.99 0.0
06 11:55 N 5 10.00 Overcast OVC012 56.3 54.1 93% 29.99 0.0
06 11:35 NW 14 10.00 Overcast OVC012 56.3 53.6 91% 30.01 0.0
06 11:15 N 7 10.00 Thunderstorm in Vicinity OVC012 56.5 53.6 90% 30 0.0
06 10:55 N 10 10.00 Overcast OVC012 56.3 52.7 88% 30 0.0
06 10:35 N 13 10.00 Overcast OVC012 56.7 53.2 88% 29.98 0.0
06 10:15 N 14 10.00 Overcast OVC012 56.3 52.3 87% 29.97 0.0
06 09:55 N 9 10.00 Overcast OVC012 56.3 52 86% 29.97 0.0
06 09:35 N 12 10.00 Overcast OVC010 55.6 52.7 90% 29.95 0.0
06 09:15 N 8 10.00 Overcast OVC010 55.4 52.7 91% 29.95 0.0
06 08:55 N 10 10.00 Overcast OVC010 54.7 52.7 93% 29.95 0.0
06 08:35 N 12 10.00 Overcast OVC010 54.5 52.7 94% 29.94 0.0
06 08:15 N 15 10.00 Overcast OVC010 54.7 52.7 93% 29.94 0.0
06 07:55 N 15 10.00 Overcast OVC012 54.7 52.3 92% 29.93 0.0
06 07:35 N 15 10.00 Overcast OVC014 55.2 52 89% 29.93 0.0
06 07:15 NW 14 10.00 Overcast OVC014 55.2 51.8 88% 29.92 0.0
06 06:55 NW 13 7.00 Overcast OVC014 55.4 50.9 61 55.4 85% 29.91 0.0
06 06:35 NW 15 10.00 Overcast OVC014 55.8 50.4 82% 29.89 0.0
06 06:15 NW 14 10.00 Overcast OVC014 55.8 50.4 82% 29.88 0.0
06 05:55 NW 13 G 17 10.00 Overcast OVC016 56.3 50.7 82% 29.87 0.0
06 05:35 NW 12 10.00 Overcast OVC016 56.5 50.7 81% 29.86 0.0
06 05:15 NW 12 10.00 Overcast OVC016 57.2 50.7 79% 29.86 0.0
06 04:55 NW 12 10.00 Overcast OVC018 57.6 50.9 79% 29.85 0.0
06 04:35 NW 9 10.00 Overcast OVC016 57.7 50.7 78% 29.85 0.0
06 04:15 N 8 10.00 Overcast OVC016 57.6 50.5 78% 29.84 0.0
06 03:55 N 8 10.00 Overcast OVC018 57.7 51.1 79% 29.83 0.0
06 03:35 NW 9 10.00 Overcast OVC018 57.7 50.9 78% 29.84 0.0
06 03:15 NW 7 10.00 Overcast OVC020 58.3 52 80% 29.84 0.0
06 02:55 NW 9 10.00 Overcast OVC020 58.5 52 79% 29.83 0.0
06 02:35 NW 10 10.00 Overcast OVC020 58.6 52.2 79% 29.83 0.0
06 02:15 N 12 10.00 Overcast OVC020 59.5 53.4 80% 29.83 0.0
06 01:55 N 12 10.00 Overcast OVC022 59.9 53.4 79% 29.83 0.0
06 01:35 NW 13 10.00 Overcast OVC022 60.1 53.6 79% 29.83 0.0
06 01:15 NW 13 10.00 Overcast OVC022 60.4 53.8 79% 29.83 0.0
06 00:55 NW 12 G 17 10.00 Overcast OVC024 61.2 54.7 80.8 61.2 79% 29.82 0.0
06 00:35 NW 8 10.00 Overcast OVC026 61.7 55.6 80% 29.82 0.0
06 00:15 NW 12 10.00 Mostly Cloudy BKN028 62.1 55.6 79% 29.82 0.0
05 23:55 N 14 10.00 Partly Cloudy SCT032 62.6 56.5 81% 29.81 0.0
05 23:35 NW 12 G 16 10.00 Partly Cloudy SCT032 SCT044 SCT060 63.9 57.9 81% 29.81 0.0
05 23:15 NW 12 10.00 Partly Cloudy SCT044 SCT050 64.9 58.3 79% 29.8 0.0
05 22:55 NW 12 10.00 Mostly Cloudy SCT039 SCT047 BKN055 66.4 59.2 78% 29.79 0.0
05 22:35 NW 13 G 17 10.00 Overcast SCT034 OVC045 68.5 61.3 78% 29.79 0.0
05 22:15 NW 15 10.00 Overcast BKN032 BKN038 OVC045 70.3 62.6 77% 29.77 0.0
05 21:55 NW 15 10.00 Overcast BKN032 BKN043 OVC050 73.9 65.3 75% 29.75 0.0
05 21:35 Calm 10.00 Overcast SCT032 BKN041 OVC060 76.5 71.2 84% 77 29.73 0.0
05 21:15 Calm 10.00 Overcast OVC041 76.8 71.1 82% 78 29.72 0.0
05 20:55 SW 5 10.00 Overcast BKN041 OVC047 77.9 70 77% 80 29.72 0.0
05 20:35 S 5 10.00 Mostly Cloudy BKN042 BKN050 78.8 69.8 74% 81 29.7 0.0
05 20:15 S 8 10.00 Partly Cloudy SCT039 SCT050 78.8 69.8 74% 81 29.71 0.0
05 19:55 S 9 10.00 Fair CLR 79.3 69.8 73% 82 29.7 0.0
05 19:35 S 9 10.00 Fair CLR 79.9 69.8 71% 83 29.7 0.0
05 18:55 S 13 10.00 Fair CLR 81 69.1 85.5 79.7 67% 84 29.69 0.0
05 18:35 S 12 10.00 Partly Cloudy SCT033 SCT039 81.9 69.1 65% 85 29.69 0.0
05 18:15 S 14 10.00 Partly Cloudy SCT036 82.2 68.9 64% 86 29.69 0.0
05 17:55 S 13 G 18 10.00 Fair CLR 84 68.7 60% 88 29.67 0.0
05 17:35 S 14 10.00 Fair CLR 83.3 68.9 62% 87 29.68 0.0
05 17:15 SW 13 10.00 Partly Cloudy SCT033 82.9 69.1 63% 87 29.69 0.0
05 16:55 SW 13 G 18 10.00 Partly Cloudy SCT033 84.7 69.6 61% 89 29.69 0.0
05 16:35 SW 14 G 20 10.00 Partly Cloudy SCT033 84 68.5 60% 87 29.69 0.0
05 16:15 SW 13 G 21 10.00 Partly Cloudy SCT033 84.4 69.1 60% 88 29.69 0.0
05 15:55 SW 17 G 23 10.00 Fair CLR 83.8 68.5 60% 87 29.69 0.0
05 15:35 SW 18 G 24 10.00 Fair CLR 82.9 68.9 63% 86 29.7 0.0
05 15:15 SW 17 G 23 10.00 Partly Cloudy SCT028 82.4 68.7 63% 86 29.7 0.0
05 14:55 SW 17 G 25 10.00 Partly Cloudy SCT027 81.9 68.9 65% 85 29.7 0.0
05 14:35 SW 20 G 24 10.00 Mostly Cloudy BKN027 80.6 68 66% 83 29.71 0.0
05 14:15 SW 15 G 21 10.00 Mostly Cloudy BKN027 BKN033 79.9 68 67% 82 29.71 0.0
05 13:55 S 17 G 26 10.00 Partly Cloudy SCT027 SCT033 80.1 68.2 67% 83 29.71 0.0
05 13:35 S 17 G 25 10.00 Partly Cloudy SCT027 79.9 67.5 66% 82 29.71 0.0
05 13:15 S 23 G 32 10.00 Partly Cloudy and Breezy SCT027 80.6 67.1 64% 83 29.7 0.0
05 12:55 S 21 G 31 10.00 Mostly Cloudy and Breezy BKN027 80.6 67.3 80.6 70.7 64% 83 29.71 0.0
05 12:15 SW 20 G 29 10.00 Mostly Cloudy BKN025 78.3 66.9 68% 80 29.73 0.0
05 11:55 S 20 G 28 10.00 Mostly Cloudy BKN025 78.8 67.1 67% 81 29.72 0.0
05 11:35 S 25 G 33 10.00 Mostly Cloudy and Breezy BKN021 77.9 66.7 69% 80 29.71 0.0
05 11:15 S 24 G 31 10.00 Mostly Cloudy and Breezy BKN021 76.8 66.9 72% 79 29.7 0.0
05 10:55 S 21 G 31 10.00 Mostly Cloudy and Breezy BKN021 75.7 66.7 74% 77 29.71 0.0
05 10:35 S 26 G 35 10.00 Overcast and Windy OVC021 75.4 66.9 75% 77 29.71 0.0
05 10:15 S 25 G 32 10.00 Overcast and Breezy OVC019 74.5 66.9 77% 29.71 0.0
05 09:55 S 22 G 26 10.00 Overcast and Breezy OVC019 73.9 67.3 80% 29.71 0.0
05 09:35 S 21 G 30 10.00 Overcast and Breezy OVC019 72.9 67.1 82% 29.71 0.0
05 09:15 S 22 G 26 10.00 Overcast and Breezy OVC019 72.5 67.1 83% 29.71 0.0
05 08:55 S 20 G 28 10.00 Overcast OVC021 72 66.7 84% 29.71 0.0
05 08:35 S 20 G 28 10.00 Overcast SCT018 OVC026 71.8 66.7 84% 29.71 0.0
05 08:15 S 22 10.00 Overcast and Breezy OVC018 71.1 66.6 86% 29.71 0.0
05 07:55 S 16 G 22 10.00 Overcast OVC018 70.9 66.4 86% 29.71 0.0
05 07:35 SW 15 G 24 10.00 Overcast OVC018 70.7 66.4 86% 29.71 0.0
05 07:15 S 20 G 28 10.00 Overcast OVC020 70.7 66.2 86% 29.7 0.0
05 06:55 S 18 G 28 10.00 Overcast OVC020 70.7 65.8 72.5 70.7 85% 29.69 0.0
05 06:35 S 18 G 24 10.00 Overcast OVC022 70.7 65.7 84% 29.68 0.0
05 06:15 S 16 G 26 10.00 Overcast OVC022 70.9 65.5 83% 29.69 0.0
05 05:55 S 17 G 26 10.00 Overcast OVC022 70.9 65.5 83% 29.69 0.0
05 05:15 S 20 G 25 10.00 Overcast OVC020 71.1 65.7 83% 29.69 0.0
05 04:55 S 20 G 23 10.00 Overcast OVC018 71.1 65.5 83% 29.7 0.0
05 04:35 S 20 G 23 10.00 Overcast OVC018 70.9 65.3 83% 29.69 0.0
05 04:15 S 17 G 23 10.00 Overcast OVC018 70.9 65.3 83% 29.7 0.0
05 03:55 S 18 G 26 10.00 Overcast OVC018 70.9 64.9 82% 29.69 0.0
05 03:35 S 16 G 25 10.00 Overcast OVC020 70.9 64.6 81% 29.7 0.0
05 03:15 S 20 G 23 10.00 Mostly Cloudy BKN022 70.9 64.4 80% 29.7 0.0
05 02:55 S 17 G 26 10.00 Partly Cloudy SCT022 71.1 64.2 79% 29.71 0.0
05 02:35 S 21 G 25 10.00 Fair and Breezy CLR 71.6 63.9 77% 29.71 0.0
05 02:15 S 20 G 25 10.00 Fair CLR 71.8 63.9 76% 29.71 0.0
05 01:55 S 17 G 26 10.00 Fair CLR 71.8 63.5 75% 29.72 0.0
05 01:35 S 18 G 30 10.00 Fair CLR 72.5 63.5 73% 29.73 0.0
05 01:15 S 15 G 23 10.00 Fair CLR 72.5 63.1 73% 29.74 0.0
05 00:55 S 16 G 24 10.00 Fair CLR 72.5 62.6 77.7 72.1 71% 29.74 0.0
05 00:35 S 14 G 23 10.00 Fair CLR 72.3 62.2 71% 29.74 0.0
05 00:15 S 14 G 23 10.00 Fair CLR 72.5 61.7 69% 29.74 0.0
04 23:55 S 15 G 22 10.00 Fair CLR 72.5 61.7 69% 29.75 0.0
04 23:35 S 14 G 23 10.00 Fair CLR 72.5 61 67% 29.75 0.0
04 23:15 S 10 G 18 10.00 Fair CLR 72.5 60.8 67% 29.76 0.0
04 22:55 S 9 G 18 10.00 Fair CLR 72.9 60.6 66% 29.76 0.0
04 22:35 S 12 G 17 10.00 Fair CLR 73 60.1 64% 29.76 0.0
04 22:15 S 12 G 17 10.00 Fair CLR 73.2 59.9 63% 29.77 0.0
04 21:55 S 10 10.00 Fair CLR 73.4 59.9 63% 29.77 0.0
04 21:35 S 13 G 17 10.00 Fair CLR 73.8 59.5 61% 29.76 0.0
04 21:15 S 8 10.00 Fair CLR 73.8 59.4 61% 29.76 0.0
04 20:55 S 13 G 16 10.00 Fair CLR 73.9 59 60% 29.76 0.0
04 20:35 S 12 10.00 Fair CLR 74.5 58.6 58% 29.76 0.0
04 20:15 S 12 10.00 Fair CLR 75.2 58.3 56% 78 29.76 0.0
04 19:55 S 9 10.00 Fair CLR 75.4 57.7 54% 78 29.76 0.0
04 19:35 S 12 10.00 Fair CLR 76.5 57 51% 78 29.75 0.0
04 19:15 S 15 10.00 Fair CLR 77.2 56.3 49% 79 29.75 0.0
04 18:55 S 18 G 24 10.00 Fair CLR 77.9 56.1 80.8 75.7 47% 79 29.76 0.0
04 18:35 S 15 G 20 10.00 Fair CLR 78.1 56.1 47% 79 29.77 0.0
04 18:15 S 14 G 20 10.00 Fair CLR 79.2 55.6 44% 80 29.78 0.0
04 17:55 S 20 G 25 10.00 Fair CLR 79.5 54.5 42% 80 29.78 0.0
04 17:35 S 16 G 22 10.00 Fair CLR 79.7 54.7 42% 80 29.79 0.0
04 17:15 S 15 G 25 10.00 Fair CLR 80.1 54.9 42% 80 29.79 0.0
04 16:55 S 13 G 26 10.00 Fair CLR 80.1 54 41% 80 29.8 0.0
04 16:35 S 18 G 24 10.00 Fair CLR 80.8 54 40% 80 29.81 0.0
04 16:15 S 14 G 25 10.00 Fair CLR 80.4 52.7 38% 80 29.81 0.0
04 15:55 S 16 G 24 10.00 Fair CLR 79.7 52.7 39% 80 29.83 0.0
04 15:35 S 17 G 25 10.00 Fair CLR 78.4 52.2 40% 79 29.84 0.0
04 15:15 S 16 G 23 10.00 Fair CLR 78.8 51.6 39% 79 29.85 0.0
04 14:55 S 17 G 24 10.00 Fair CLR 78.6 51.6 39% 79 29.86 0.0
04 14:35 S 16 G 23 10.00 Fair CLR 78.3 52 40% 79 29.87 0.0
04 14:15 SE 15 G 20 10.00 Fair CLR 78.6 52.2 40% 79 29.88 0.0
04 13:55 S 16 G 24 10.00 Fair CLR 77.4 51.8 41% 78 29.89 0.0
04 13:35 S 15 G 23 10.00 Fair CLR 77.4 51.4 40% 78 29.9 0.0
04 13:15 S 17 G 24 10.00 Fair CLR 76.5 50.7 41% 78 29.91 0.0
04 12:55 S 17 G 24 10.00 Fair CLR 75.6 50.4 76.1 59.5 41% 78 29.92 0.0
04 12:35 S 17 G 22 10.00 Fair CLR 75.9 50.7 41% 78 29.93 0.0
04 12:15 S 16 10.00 Fair CLR 75 50 42% 78 29.94 0.0
04 11:55 S 21 G 26 10.00 Fair and Breezy CLR 74.7 49.6 41% 29.95 0.0
04 11:35 S 18 G 29 10.00 Fair CLR 73.9 49.1 42% 29.95 0.0
04 11:15 S 17 G 24 10.00 Fair CLR 73.4 50.5 45% 29.95 0.0
04 10:55 S 24 G 29 10.00 Fair and Breezy CLR 72.9 50.2 45% 29.95 0.0
04 10:35 S 23 G 29 10.00 Fair and Breezy CLR 71.8 50.7 48% 29.96 0.0
04 10:15 S 22 G 28 10.00 Fair and Breezy CLR 70.5 50.7 50% 29.96 0.0
04 09:55 S 21 G 28 10.00 Fair and Breezy CLR 69.8 51.1 52% 29.96 0.0
04 09:35 S 17 G 28 10.00 Fair CLR 68.9 52.2 55% 29.97 0.0
04 09:15 S 21 G 25 10.00 Fair and Breezy CLR 67.8 52.3 58% 29.97 0.0
04 08:55 S 16 10.00 Fair CLR 66.2 52.5 62% 29.97 0.0
04 08:35 SW 15 G 23 10.00 Fair CLR 64.8 52.7 65% 29.98 0.0
04 08:15 S 14 G 17 10.00 Fair CLR 63.5 52.7 68% 29.97 0.0
04 07:55 S 15 10.00 Fair CLR 62.6 52.7 70% 29.98 0.0
04 07:35 S 10 10.00 Fair CLR 61.2 52.3 73% 29.97 0.0
04 07:15 S 9 10.00 Fair CLR 59.9 52.2 76% 29.97 0.0
04 06:55 S 7 10.00 Fair CLR 59.5 51.8 63.5 59 76% 29.96 0.0
04 06:35 S 8 10.00 Fair CLR 59 51.8 77% 29.96 0.0
04 06:15 S 8 10.00 Fair CLR 59.4 51.4 75% 29.96 0.0
04 05:55 S 10 10.00 Fair CLR 59.5 51.4 75% 29.96 0.0
04 05:35 S 10 10.00 Fair CLR 59.9 51.4 74% 29.96 0.0
04 05:15 S 9 10.00 Fair CLR 60.1 50.9 72% 29.96 0.0
Date Time (cdt) Wind (mph) Vis. (mi.) Weather Sky Cond. Air Dwpt Max. Min. Relative Humidity Wind Chill (°F) Heat Index (°F) altimeter (in) sea level (mb) 1 hr 3 hr 6 hr
6 hour
Temperature (ºF) Pressure Precipitation (in)